Time;durP1;ratioP1;P1;durP2;ratioP2;P2;SDS_P1;SDS_P2;PMS_P1;PMS_P2;Temp;Humidity;BMP_temperature;BMP_pressure;BME280_temperature;BME280_humidity;BME280_pressure;Samples;Min_cycle;Max_cycle;Signal;HPM_P1;HPM_P2
2022/04/06 00:01:26;;;;;;;15.73;11.93;;;9.40;99.90;;;;;;5053265;28;20029;-86
2022/04/06 00:03:54;;;;;;;15.27;11.50;;;9.90;99.90;;;;;;5048261;28;20029;-87
2022/04/06 00:06:28;;;;;;;17.52;11.93;;;10.50;99.90;;;;;;5055331;28;20037;-86
2022/04/06 00:09:02;;;;;;;15.80;12.23;;;10.80;99.90;;;;;;5063627;28;20036;-88
2022/04/06 00:11:31;;;;;;;17.45;12.65;;;9.90;99.90;;;;;;5046847;28;20045;-86
2022/04/06 00:14:25;;;;;;;16.83;12.05;;;10.40;99.90;;;;;;5046083;28;20053;-89
2022/04/06 00:17:04;;;;;;;16.70;11.27;;;9.90;99.90;;;;;;5059760;28;20041;-86
2022/04/06 00:19:36;;;;;;;17.83;12.73;;;9.90;99.90;;;;;;5054210;28;20025;-89
2022/04/06 00:22:14;;;;;;;15.40;12.13;;;10.00;99.90;;;;;;5049320;28;20094;-87
2022/04/06 00:24:47;;;;;;;19.63;13.20;;;9.60;99.90;;;;;;5045770;28;20056;-87
2022/04/06 00:27:17;;;;;;;16.15;11.65;;;9.50;99.90;;;;;;5063571;28;20110;-86
2022/04/06 00:29:53;;;;;;;;;;;;;;;;;;;;;
2022/04/06 00:32:22;;;;;;;17.55;11.70;;;9.20;99.90;;;;;;5062612;28;20048;-86
2022/04/06 00:35:30;;;;;;;16.80;12.20;;;9.80;99.90;;;;;;5048760;28;20051;-87
2022/04/06 00:38:12;;;;;;;15.90;11.82;;;9.80;99.90;;;;;;5049299;28;20037;-86
2022/04/06 00:40:41;;;;;;;17.13;11.70;;;9.80;99.90;;;;;;5044924;28;20633;-85
2022/04/06 00:43:22;;;;;;;19.20;12.32;;;9.80;99.90;;;;;;5050829;28;20018;-86
2022/04/06 00:45:50;;;;;;;;;;;9.80;99.90;;;;;;5034743;28;20029;-87
2022/04/06 00:48:37;;;;;;;16.63;11.85;;;9.80;99.90;;;;;;5063507;28;20359;-88
2022/04/06 00:51:03;;;;;;;17.73;12.38;;;9.80;99.90;;;;;;5043666;28;20021;-87
2022/04/06 00:53:36;;;;;;;18.13;12.82;;;9.70;99.90;;;;;;5049261;28;20070;-87
2022/04/06 00:56:07;;;;;;;16.85;12.43;;;9.60;99.90;;;;;;5065036;28;20052;-85
2022/04/06 00:58:38;;;;;;;17.75;12.00;;;9.70;99.90;;;;;;5051298;28;20025;-86
2022/04/06 01:01:04;;;;;;;16.48;11.63;;;10.50;99.90;;;;;;5064680;28;20510;-86
2022/04/06 01:03:50;;;;;;;19.80;13.10;;;9.60;99.90;;;;;;5047528;28;20044;-86
2022/04/06 01:06:23;;;;;;;17.67;12.70;;;9.70;99.90;;;;;;5065511;28;20044;-89
2022/04/06 01:08:49;;;;;;;17.60;12.13;;;10.20;99.90;;;;;;5066374;28;20021;-86
2022/04/06 01:11:19;;;;;;;20.38;13.13;;;8.80;99.90;;;;;;5044289;28;20052;-88
2022/04/06 01:13:47;;;;;;;21.13;13.27;;;9.70;99.90;;;;;;5049460;28;20039;-85
2022/04/06 01:16:14;;;;;;;15.65;11.68;;;10.30;99.90;;;;;;5046420;28;20036;-86
2022/04/06 01:18:43;;;;;;;18.45;13.35;;;9.80;99.90;;;;;;5047563;28;20060;-88
2022/04/06 01:21:11;;;;;;;17.00;12.32;;;10.40;99.90;;;;;;5061877;28;20079;-88
2022/04/06 01:23:42;;;;;;;17.92;12.90;;;10.00;99.90;;;;;;5048484;28;20024;-86
2022/04/06 01:26:09;;;;;;;16.30;12.13;;;9.70;99.90;;;;;;5046011;28;20029;-88
2022/04/06 01:28:36;;;;;;;15.43;12.00;;;9.70;99.90;;;;;;5048282;28;20029;-84
2022/04/06 01:31:02;;;;;;;16.95;12.27;;;9.60;99.90;;;;;;5049429;28;20029;-87
2022/04/06 01:33:29;;;;;;;15.68;12.25;;;9.70;99.90;;;;;;5063285;28;20035;-88
2022/04/06 01:35:59;;;;;;;16.23;12.10;;;8.90;99.90;;;;;;5051034;28;20012;-87
2022/04/06 01:38:46;;;;;;;18.08;12.20;;;9.70;99.90;;;;;;5065762;28;20025;-88
2022/04/06 01:41:14;;;;;;;17.83;12.50;;;9.70;99.90;;;;;;5052095;28;20040;-87
2022/04/06 01:43:43;;;;;;;17.38;11.25;;;9.00;99.90;;;;;;5048909;28;20093;-88
2022/04/06 01:46:09;;;;;;;15.00;10.48;;;9.80;99.90;;;;;;5050194;28;20033;-87
2022/04/06 01:52:11;;;;;;;17.65;11.35;;;10.60;99.90;;;;;;5053148;28;20044;-82
2022/04/06 01:54:07;;;;;;;15.20;10.68;;;10.40;99.90;;;;;;5065280;28;20357;-87
2022/04/06 01:56:36;;;;;;;15.00;10.65;;;9.70;99.90;;;;;;5052321;28;20021;-84
2022/04/06 01:59:02;;;;;;;13.30;10.25;;;9.60;99.90;;;;;;5055808;28;20005;-85
2022/04/06 02:01:38;;;;;;;13.52;10.27;;;10.40;99.90;;;;;;5056627;28;20033;-87
2022/04/06 02:04:15;;;;;;;15.13;10.30;;;9.70;99.90;;;;;;5057596;28;20036;-85
2022/04/06 02:06:44;;;;;;;15.23;10.15;;;9.70;99.90;;;;;;5055251;28;20029;-84
2022/04/06 02:09:11;;;;;;;15.27;10.38;;;9.80;99.90;;;;;;5052063;28;20033;-86
2022/04/06 02:11:38;;;;;;;13.25;9.55;;;9.70;99.90;;;;;;5046204;28;20085;-86
2022/04/06 02:14:05;;;;;;;13.85;9.63;;;9.80;99.90;;;;;;5052073;28;20031;-89
2022/04/06 02:16:32;;;;;;;13.85;10.00;;;9.70;99.90;;;;;;5055443;28;20028;-85
2022/04/06 02:18:58;;;;;;;13.70;9.20;;;10.80;99.90;;;;;;5064548;28;20025;-85
2022/04/06 02:21:24;;;;;;;13.48;9.20;;;10.80;99.90;;;;;;5057807;28;20093;-86
2022/04/06 02:23:50;;;;;;;13.65;9.60;;;9.70;99.90;;;;;;5050792;28;20037;-88
2022/04/06 02:26:19;;;;;;;17.50;9.55;;;9.70;99.90;;;;;;5070302;28;20017;-88
2022/04/06 02:28:45;;;;;;;14.45;9.77;;;10.10;99.90;;;;;;5058741;28;20009;-90
2022/04/06 02:31:11;;;;;;;15.93;8.80;;;9.90;99.90;;;;;;5070563;28;20044;-88
2022/04/06 02:33:37;;;;;;;13.85;9.35;;;10.50;99.90;;;;;;5054041;28;20034;-88
2022/04/06 02:36:04;;;;;;;12.02;9.18;;;9.70;99.90;;;;;;5073921;28;20021;-85
2022/04/06 02:38:30;;;;;;;14.25;9.25;;;9.70;99.90;;;;;;5065529;28;20049;-87
2022/04/06 02:40:56;;;;;;;16.60;10.20;;;9.70;99.90;;;;;;5050509;28;20049;-88
2022/04/06 02:43:25;;;;;;;14.38;9.98;;;9.70;99.90;;;;;;5043985;28;20021;-86
2022/04/06 02:45:50;;;;;;;15.55;9.43;;;9.70;99.90;;;;;;5053733;28;20025;-86
2022/04/06 02:48:16;;;;;;;13.52;10.07;;;9.70;99.90;;;;;;5048048;28;20021;-84
2022/04/06 02:50:42;;;;;;;13.27;10.02;;;11.00;99.90;;;;;;5042923;28;20040;-85
2022/04/06 02:53:08;;;;;;;14.15;10.85;;;9.70;99.90;;;;;;5050166;28;20074;-83
2022/04/06 02:55:37;;;;;;;15.18;10.85;;;9.70;99.90;;;;;;5050626;28;20017;-85
2022/04/06 02:58:02;;;;;;;14.10;10.80;;;9.70;99.90;;;;;;5054512;28;20025;-89
2022/04/06 03:00:32;;;;;;;16.85;11.60;;;9.70;99.90;;;;;;5053235;28;20040;-87
2022/04/06 03:02:59;;;;;;;15.32;11.55;;;9.70;99.90;;;;;;5052498;28;20029;-86
2022/04/06 03:05:27;;;;;;;14.02;10.40;;;9.70;99.90;;;;;;5069426;28;20032;-86
2022/04/06 03:07:53;;;;;;;17.05;11.60;;;9.80;99.90;;;;;;5052163;28;20025;-87
2022/04/06 03:10:19;;;;;;;16.35;11.85;;;9.80;99.90;;;;;;5048593;28;20040;-87
2022/04/06 03:12:46;;;;;;;19.40;11.93;;;9.80;99.90;;;;;;5050179;28;20036;-83
2022/04/06 03:15:12;;;;;;;15.60;12.00;;;9.80;99.90;;;;;;5068428;28;20010;-83
2022/04/06 03:17:38;;;;;;;17.02;11.90;;;9.80;99.90;;;;;;5069549;28;20009;-84
2022/04/06 03:20:05;;;;;;;16.27;11.48;;;9.80;99.90;;;;;;5060785;28;20028;-84
2022/04/06 03:22:31;;;;;;;17.10;12.05;;;9.80;99.90;;;;;;5046440;28;20260;-84
2022/04/06 03:24:57;;;;;;;18.95;12.20;;;9.80;99.90;;;;;;5053088;28;20047;-85
2022/04/06 03:27:22;;;;;;;18.50;11.75;;;9.80;99.90;;;;;;5054301;28;20021;-84
2022/04/06 03:29:51;;;;;;;17.90;12.50;;;9.80;99.90;;;;;;5053650;28;20517;-86
2022/04/06 03:32:18;;;;;;;17.95;11.32;;;10.30;99.90;;;;;;5028178;28;20048;-84
2022/04/06 03:34:44;;;;;;;17.30;12.25;;;9.80;99.90;;;;;;5053674;28;20053;-86
2022/04/06 03:37:10;;;;;;;15.05;11.65;;;10.10;99.90;;;;;;5043001;28;20041;-85
2022/04/06 03:39:36;;;;;;;15.60;11.93;;;10.20;99.90;;;;;;5046724;28;20016;-86
2022/04/06 03:42:03;;;;;;;16.33;11.88;;;11.00;99.90;;;;;;5057368;28;20009;-86
2022/04/06 03:44:29;;;;;;;18.50;12.52;;;9.20;99.90;;;;;;5053976;28;20045;-87
2022/04/06 03:46:56;;;;;;;18.35;12.13;;;9.90;99.90;;;;;;5035321;28;20032;-85
2022/04/06 03:49:22;;;;;;;15.02;11.35;;;9.80;99.90;;;;;;5043619;28;20029;-86
2022/04/06 03:51:48;;;;;;;16.65;11.45;;;9.70;99.90;;;;;;5052477;28;20035;-82
2022/04/06 03:54:17;;;;;;;16.30;11.88;;;9.80;99.90;;;;;;5054855;28;20024;-91
2022/04/06 03:56:44;;;;;;;14.83;10.47;;;9.80;99.90;;;;;;5065701;28;20013;-89
2022/04/06 04:04:23;;;;;;;16.20;10.85;;;9.80;99.90;;;;;;5071091;28;20041;-82
2022/04/06 04:06:52;;;;;;;;;;;9.80;99.90;;;;;;5067418;28;20037;-84
2022/04/06 04:09:18;;;;;;;16.77;10.30;;;9.80;99.90;;;;;;5036987;28;19909;-84
2022/04/06 04:11:44;;;;;;;17.20;10.77;;;8.80;99.90;;;;;;5033750;28;20045;-83
2022/04/06 04:14:09;;;;;;;14.68;10.23;;;9.70;99.90;;;;;;5058058;28;20031;-86
2022/04/06 04:16:35;;;;;;;13.98;10.93;;;9.80;99.90;;;;;;5052149;28;20045;-87
2022/04/06 04:19:08;;;;;;;16.17;10.38;;;9.90;99.90;;;;;;5072898;28;20024;-84
2022/04/06 04:21:35;;;;;;;14.98;11.05;;;9.80;99.90;;;;;;5055553;28;20021;-82
2022/04/06 04:24:08;;;;;;;17.52;11.82;;;9.90;99.90;;;;;;5055961;28;20021;-86
2022/04/06 04:26:36;;;;;;;16.25;10.52;;;10.10;99.90;;;;;;5073705;28;20021;-86
2022/04/06 04:29:03;;;;;;;15.05;10.35;;;9.90;99.90;;;;;;5061628;28;20077;-86
2022/04/06 04:31:35;;;;;;;16.13;10.63;;;9.80;99.90;;;;;;5056633;28;20048;-85
2022/04/06 04:34:06;;;;;;;16.10;10.10;;;9.80;99.90;;;;;;5052911;28;20088;-83
2022/04/06 04:36:41;;;;;;;15.95;10.55;;;9.80;99.90;;;;;;5067447;28;20040;-85
2022/04/06 04:39:07;;;;;;;16.83;10.23;;;9.80;99.90;;;;;;5053070;28;20048;-86
2022/04/06 04:41:44;;;;;;;14.65;10.13;;;10.00;99.90;;;;;;5050711;28;20024;-86
2022/04/06 04:44:12;;;;;;;18.25;10.98;;;9.80;99.90;;;;;;5059572;28;20052;-85
2022/04/06 04:46:50;;;;;;;14.65;10.27;;;10.90;99.90;;;;;;5050475;28;20025;-85
2022/04/06 04:49:16;;;;;;;14.25;10.52;;;9.80;99.90;;;;;;5049906;28;20063;-89
2022/04/06 04:51:43;;;;;;;15.60;10.57;;;9.80;99.90;;;;;;5062441;28;20009;-87
2022/04/06 04:54:10;;;;;;;16.95;11.07;;;9.80;99.90;;;;;;5050175;28;20092;-88
2022/04/06 04:56:36;;;;;;;16.77;10.45;;;9.90;99.90;;;;;;5053115;28;20502;-90
2022/04/06 04:59:13;;;;;;;17.27;11.43;;;9.80;99.90;;;;;;5053213;28;20021;-89
2022/04/06 05:02:18;;;;;;;;;;;;;;;;;;;;;
2022/04/06 05:05:51;;;;;;;19.38;10.50;;;9.80;99.90;;;;;;5064652;28;20124;-87
2022/04/06 05:09:00;;;;;;;18.60;11.98;;;9.70;99.90;;;;;;4988569;28;20053;-85
2022/04/06 05:11:27;;;;;;;18.65;10.85;;;9.70;99.90;;;;;;5049218;28;20044;-84
2022/04/06 05:13:53;;;;;;;17.85;10.40;;;9.70;99.90;;;;;;5052599;28;20033;-86
2022/04/06 05:16:24;;;;;;;16.33;10.75;;;9.80;99.90;;;;;;5046208;28;20025;-83
2022/04/06 05:19:43;;;;;;;18.45;11.30;;;9.70;99.90;;;;;;5046934;28;20029;-84
2022/04/06 05:22:49;;;;;;;14.68;9.80;;;9.80;99.90;;;;;;4997842;28;20117;-85
2022/04/06 05:25:27;;;;;;;14.57;9.43;;;9.80;99.90;;;;;;4987306;28;20031;-87
2022/04/06 05:28:01;;;;;;;18.80;10.93;;;9.80;99.90;;;;;;5072093;28;20005;-85
2022/04/06 05:31:31;;;;;;;16.30;9.23;;;11.00;99.90;;;;;;5067725;28;20382;-88
2022/04/06 05:36:41;;;;;;;16.08;9.55;;;9.30;99.90;;;;;;4996620;28;20080;-90
2022/04/06 05:39:13;;;;;;;18.33;9.55;;;9.80;99.90;;;;;;5049560;28;20029;-88
2022/04/06 05:52:10;;;;;;;11.85;8.10;;;9.80;99.90;;;;;;5079013;23;20053;-83
2022/04/06 05:54:39;;;;;;;15.23;8.73;;;9.90;99.90;;;;;;5055518;28;20474;-84
2022/04/06 05:57:32;;;;;;;13.50;7.78;;;9.90;99.90;;;;;;5051198;28;20504;-83
2022/04/06 05:59:58;;;;;;;12.05;8.27;;;9.90;99.90;;;;;;5030978;28;20056;-83
2022/04/06 06:02:25;;;;;;;13.60;8.23;;;10.10;99.90;;;;;;5034973;28;20581;-86
2022/04/06 06:04:53;;;;;;;9.95;6.90;;;10.00;99.90;;;;;;5033526;28;20108;-85
2022/04/06 06:07:20;;;;;;;14.13;7.57;;;10.00;99.90;;;;;;5034813;28;20454;-85
2022/04/06 06:09:46;;;;;;;9.82;6.57;;;10.00;99.90;;;;;;5037592;28;20371;-86
2022/04/06 06:12:12;;;;;;;11.25;6.82;;;10.10;99.90;;;;;;5054177;28;20099;-84
2022/04/06 06:14:38;;;;;;;12.38;6.72;;;10.10;99.90;;;;;;5037449;28;20030;-85
2022/04/06 06:17:03;;;;;;;15.00;6.65;;;10.30;99.90;;;;;;5033319;28;20120;-89
2022/04/06 06:19:29;;;;;;;15.02;6.38;;;10.20;99.90;;;;;;5036062;28;20025;-85
2022/04/06 06:21:55;;;;;;;11.70;5.53;;;10.20;99.90;;;;;;5051703;28;20033;-84
2022/04/06 06:24:21;;;;;;;11.82;6.13;;;10.30;99.90;;;;;;5053176;28;20378;-87
2022/04/06 06:26:47;;;;;;;10.60;5.78;;;10.20;99.90;;;;;;5053063;28;20025;-85
2022/04/06 06:29:13;;;;;;;10.20;6.18;;;10.10;99.90;;;;;;5032681;28;20576;-86
2022/04/06 06:31:39;;;;;;;10.93;5.90;;;10.20;99.90;;;;;;5056801;28;20037;-85
2022/04/06 06:34:05;;;;;;;11.40;5.82;;;10.20;99.90;;;;;;5039893;28;20028;-90
2022/04/06 06:36:31;;;;;;;12.45;6.53;;;10.20;99.90;;;;;;5035813;28;20021;-86
2022/04/06 06:38:56;;;;;;;12.18;6.18;;;10.20;99.90;;;;;;5053174;28;20032;-83
2022/04/06 06:41:23;;;;;;;12.27;6.15;;;10.20;99.90;;;;;;5036762;28;20038;-86
2022/04/06 06:43:50;;;;;;;12.40;5.75;;;10.30;99.90;;;;;;5031431;28;20017;-84
2022/04/06 06:46:22;;;;;;;9.55;5.63;;;10.20;99.90;;;;;;5036743;28;20029;-84
2022/04/06 06:48:49;;;;;;;11.48;6.32;;;10.20;99.90;;;;;;5042668;28;20127;-86
2022/04/06 06:51:16;;;;;;;10.52;6.50;;;10.20;99.90;;;;;;5056450;28;20024;-85
2022/04/06 06:53:42;;;;;;;13.00;6.35;;;10.30;99.90;;;;;;5035180;28;20156;-86
2022/04/06 06:56:08;;;;;;;12.15;6.82;;;10.30;99.90;;;;;;5031950;28;20496;-86
2022/04/06 06:58:35;;;;;;;10.65;6.38;;;10.30;99.90;;;;;;5038855;28;20024;-84
2022/04/06 07:01:00;;;;;;;11.98;6.90;;;10.30;99.90;;;;;;5037468;28;20097;-85
2022/04/06 07:03:27;;;;;;;13.07;6.18;;;10.40;99.90;;;;;;5055426;28;20163;-85
2022/04/06 07:05:55;;;;;;;10.85;6.60;;;10.30;99.90;;;;;;5052048;28;20489;-86
2022/04/06 07:08:22;;;;;;;10.73;6.32;;;10.20;99.90;;;;;;5040931;28;20060;-87
2022/04/06 07:10:59;;;;;;;12.07;6.43;;;10.20;99.90;;;;;;5036869;28;20025;-87
2022/04/06 07:13:25;;;;;;;12.07;6.18;;;10.20;99.90;;;;;;5051832;28;20021;-88
2022/04/06 07:15:51;;;;;;;14.73;7.18;;;10.30;99.90;;;;;;5039425;28;20021;-88
2022/04/06 07:18:18;;;;;;;13.95;6.38;;;10.30;99.90;;;;;;5038499;28;20017;-86
2022/04/06 07:20:44;;;;;;;10.15;5.90;;;10.20;99.90;;;;;;5034907;28;21185;-86
2022/04/06 07:23:13;;;;;;;10.85;6.63;;;10.30;99.90;;;;;;5037973;28;20061;-86
2022/04/06 07:25:40;;;;;;;16.33;5.95;;;10.30;99.90;;;;;;5039645;28;20032;-84
2022/04/06 07:28:06;;;;;;;10.57;4.63;;;10.60;99.90;;;;;;5036047;28;20281;-86
2022/04/06 07:30:32;;;;;;;9.07;4.82;;;10.50;99.90;;;;;;5036652;28;20059;-86
2022/04/06 07:33:01;;;;;;;11.23;3.97;;;10.60;99.90;;;;;;5038873;28;20021;-86
2022/04/06 07:35:27;;;;;;;8.60;4.32;;;10.80;99.90;;;;;;5040412;28;20070;-87
2022/04/06 07:37:53;;;;;;;9.25;4.10;;;10.90;99.90;;;;;;5039509;28;20116;-85
2022/04/06 07:40:23;;;;;;;9.88;4.15;;;10.60;99.90;;;;;;5034022;28;20099;-84
2022/04/06 07:42:50;;;;;;;12.88;3.90;;;11.00;99.90;;;;;;5031187;28;20017;-85
2022/04/06 07:45:18;;;;;;;8.65;3.90;;;11.10;99.90;;;;;;5040277;28;20037;-85
2022/04/06 07:47:48;;;;;;;8.45;3.30;;;11.00;99.90;;;;;;5037799;28;20072;-85
2022/04/06 07:50:15;;;;;;;6.55;3.33;;;11.00;99.90;;;;;;5037438;28;20490;-83
2022/04/06 07:52:41;;;;;;;10.10;3.13;;;11.00;99.90;;;;;;5055058;28;20448;-85
2022/04/06 07:55:09;;;;;;;7.82;3.88;;;11.00;99.90;;;;;;5036099;28;20033;-83
2022/04/06 07:57:35;;;;;;;9.75;3.58;;;10.90;99.90;;;;;;5039290;28;20089;-85
2022/04/06 08:00:15;;;;;;;7.40;3.47;;;11.00;99.90;;;;;;5050602;28;20047;-87
2022/04/06 08:02:48;;;;;;;6.93;2.80;;;11.10;99.90;;;;;;5073104;23;20800;-86
2022/04/06 20:03:47;;;;;;;5.35;3.70;;;;;;;;;;5058599;23;19948;-83
2022/04/06 20:06:13;;;;;;;8.32;4.18;;;;;;;;;;5035558;28;20534;-86
2022/04/06 20:08:39;;;;;;;9.55;4.45;;;;;;;;;;5027671;28;20260;-84
2022/04/06 20:11:50;;;;;;;10.10;4.85;;;;;;;;;;5020774;28;20121;-84
2022/04/06 20:14:22;;;;;;;7.60;4.40;;;11.10;99.90;;;;;;5043246;28;20560;-89
2022/04/06 20:16:54;;;;;;;6.13;4.25;;;11.00;99.90;;;;;;5063861;28;20032;-86
2022/04/06 20:19:32;;;;;;;6.60;4.35;;;11.00;99.90;;;;;;5039814;28;20052;-84
2022/04/06 20:22:45;;;;;;;6.60;4.28;;;10.90;99.90;;;;;;5046180;28;20043;-84
2022/04/06 20:25:11;;;;;;;6.35;4.47;;;;;;;;;;5048674;28;20045;-82
2022/04/06 20:27:48;;;;;;;7.97;4.43;;;11.00;99.90;;;;;;5043047;28;20029;-81
2022/04/06 20:30:14;;;;;;;8.95;5.45;;;;;;;;;;5046186;28;20486;-85
2022/04/06 20:32:40;;;;;;;7.35;4.70;;;;;;;;;;5048703;28;20021;-82
2022/04/06 20:35:08;;;;;;;8.73;5.20;;;11.00;99.90;;;;;;5049161;28;20037;-84
2022/04/06 20:37:34;;;;;;;16.52;9.38;;;;;;;;;;5043090;28;20021;-86
2022/04/06 20:40:03;;;;;;;9.57;5.30;;;;;;;;;;5041391;28;20059;-84
2022/04/06 20:42:29;;;;;;;8.45;4.10;;;;;;;;;;5043238;28;20113;-84
2022/04/06 20:45:02;;;;;;;11.73;5.00;;;;;;;;;;5045073;28;20205;-82
2022/04/06 20:47:28;;;;;;;16.70;9.30;;;;;;;;;;5049620;28;20039;-84
2022/04/06 20:49:54;;;;;;;10.63;5.63;;;;;;;;;;5043421;28;20033;-85
2022/04/06 20:52:20;;;;;;;7.65;4.30;;;;;;;;;;5043623;28;20013;-82
2022/04/06 20:54:52;;;;;;;6.65;3.80;;;;;;;;;;5050976;28;20029;-84
2022/04/06 20:57:18;;;;;;;5.47;3.85;;;;;;;;;;5056784;28;20543;-84
2022/04/06 20:59:45;;;;;;;10.05;5.00;;;;;;;;;;5060470;28;20041;-83
2022/04/06 21:02:11;;;;;;;6.68;3.95;;;;;;;;;;5047103;28;20036;-81
2022/04/06 21:04:37;;;;;;;7.68;3.92;;;;;;;;;;5029188;28;20032;-82
2022/04/06 21:07:03;;;;;;;4.68;3.25;;;;;;;;;;5060717;28;20024;-86
2022/04/06 21:09:33;;;;;;;7.10;3.70;;;10.90;99.90;;;;;;5058800;28;20490;-86
2022/04/06 21:11:59;;;;;;;7.07;3.80;;;;;;;;;;5042243;28;20044;-86
2022/04/06 21:14:27;;;;;;;5.15;3.15;;;;;;;;;;5057102;28;20256;-87
2022/04/06 21:16:53;;;;;;;6.25;3.17;;;;;;;;;;5049865;28;20029;-83
2022/04/06 21:19:23;;;;;;;6.43;3.47;;;;;;;;;;5042863;28;20474;-83
2022/04/06 21:21:58;;;;;;;6.45;3.28;;;;;;;;;;5044753;28;20032;-82
2022/04/06 21:24:27;;;;;;;6.00;3.47;;;;;;;;;;5052987;28;20026;-87
2022/04/06 21:26:55;;;;;;;11.18;3.70;;;10.60;99.90;;;;;;5045503;28;20033;-88
2022/04/06 21:29:21;;;;;;;7.78;3.65;;;10.50;99.90;;;;;;5044062;28;20018;-86
2022/04/06 21:31:47;;;;;;;7.82;3.53;;;;;;;;;;5032650;28;20252;-85
2022/04/06 21:34:14;;;;;;;7.70;3.40;;;;;;;;;;5052747;28;20101;-85
2022/04/06 21:36:40;;;;;;;7.53;3.78;;;;;;;;;;5059915;28;20025;-89
2022/04/06 21:39:07;;;;;;;9.25;4.57;;;;;;;;;;5062774;28;20061;-88
2022/04/06 21:41:33;;;;;;;7.10;3.88;;;;;;;;;;5068744;28;20702;-88
2022/04/06 21:44:01;;;;;;;8.55;3.80;;;;;;;;;;5061202;28;20025;-88
2022/04/06 21:46:32;;;;;;;7.30;3.90;;;10.30;99.90;;;;;;5062325;28;20017;-86
2022/04/06 21:49:01;;;;;;;7.55;4.40;;;10.20;99.90;;;;;;5061117;28;20036;-87
2022/04/06 21:51:27;;;;;;;7.65;4.75;;;;;;;;;;5074746;28;20013;-87
2022/04/06 21:54:00;;;;;;;7.60;4.53;;;;;;;;;;5060386;28;20035;-87
2022/04/06 21:56:29;;;;;;;7.88;4.13;;;;;;;;;;5044704;28;20075;-84
2022/04/06 21:58:58;;;;;;;6.47;4.50;;;;;;;;;;5039534;28;20080;-87
2022/04/06 22:01:24;;;;;;;10.18;4.57;;;;;;;;;;5037387;28;23202;-83
2022/04/06 22:03:53;;;;;;;13.73;5.82;;;;;;;;;;5045716;28;20056;-82
2022/04/06 22:06:25;;;;;;;10.05;4.75;;;;;;;;;;5044955;28;20021;-82
2022/04/06 22:08:51;;;;;;;7.68;5.05;;;;;;;;;;5035072;28;20021;-84
2022/04/06 22:11:17;;;;;;;10.10;5.25;;;;;;;;;;5058493;28;20049;-83
2022/04/06 22:13:44;;;;;;;7.57;4.43;;;;;;;;;;5040700;28;20084;-84
2022/04/06 22:16:10;;;;;;;7.97;4.65;;;;;;;;;;5070656;28;20077;-82
2022/04/06 22:18:36;;;;;;;9.77;4.75;;;;;;;;;;5033833;28;20052;-82
2022/04/06 22:21:02;;;;;;;7.47;4.82;;;10.30;99.90;;;;;;5039157;28;20037;-85
2022/04/06 22:23:31;;;;;;;7.10;4.57;;;10.30;99.90;;;;;;5044447;28;20028;-83
2022/04/06 22:25:57;;;;;;;7.95;4.47;;;10.30;99.90;;;;;;5054569;28;20032;-84
2022/04/06 22:28:24;;;;;;;7.38;3.95;;;;;;;;;;5055039;28;20027;-85
2022/04/06 22:30:50;;;;;;;7.75;4.43;;;;;;;;;;5052164;28;20029;-83
2022/04/06 22:33:16;;;;;;;10.30;4.97;;;;;;;;;;5056144;28;20044;-82
2022/04/06 22:35:43;;;;;;;7.35;4.22;;;;;;;;;;5061601;28;20031;-84
2022/04/06 22:38:09;;;;;;;6.20;3.70;;;;;;;;;;5040717;28;20033;-84
2022/04/06 22:40:35;;;;;;;7.55;3.50;;;;;;;;;;5044429;28;20125;-86
2022/04/06 22:43:01;;;;;;;7.50;3.55;;;;;;;;;;5043849;28;20064;-85
2022/04/06 22:45:28;;;;;;;7.05;3.38;;;;;;;;;;5040921;28;20022;-84
2022/04/06 22:47:55;;;;;;;5.47;3.40;;;;;;;;;;5049374;28;20028;-84
2022/04/06 22:50:22;;;;;;;5.18;3.15;;;;;;;;;;5028544;28;20425;-85
2022/04/06 22:52:48;;;;;;;5.38;3.22;;;;;;;;;;5040988;28;20120;-84
2022/04/06 22:55:17;;;;;;;5.95;3.10;;;;;;;;;;5025408;28;20030;-80
2022/04/06 22:57:44;;;;;;;5.75;3.15;;;;;;;;;;5043387;28;20029;-84
2022/04/06 23:00:12;;;;;;;4.65;2.80;;;;;;;;;;5049131;28;20509;-82
2022/04/06 23:02:38;;;;;;;6.53;3.13;;;;;;;;;;5043554;28;20041;-84
2022/04/06 23:05:05;;;;;;;4.10;2.85;;;;;;;;;;5061585;28;20378;-84
2022/04/06 23:07:31;;;;;;;5.13;2.95;;;;;;;;;;5037407;28;20036;-84
2022/04/06 23:09:57;;;;;;;5.55;3.00;;;;;;;;;;5051106;28;20029;-84
2022/04/06 23:12:23;;;;;;;4.38;2.53;;;;;;;;;;5040379;28;20029;-83
2022/04/06 23:14:50;;;;;;;6.97;3.47;;;;;;;;;;5041854;28;20039;-86
2022/04/06 23:17:17;;;;;;;7.18;3.20;;;;;;;;;;5040967;28;20029;-84
2022/04/06 23:19:50;;;;;;;6.03;3.15;;;;;;;;;;5043460;28;20040;-85
2022/04/06 23:22:16;;;;;;;5.55;2.85;;;;;;;;;;5042786;28;20029;-87
2022/04/06 23:24:42;;;;;;;6.45;3.17;;;;;;;;;;5040276;28;20055;-84
2022/04/06 23:27:16;;;;;;;6.78;3.05;;;;;;;;;;5047466;28;20124;-87
2022/04/06 23:29:50;;;;;;;4.70;2.60;;;;;;;;;;5040817;28;20076;-86
2022/04/06 23:32:33;;;;;;;5.65;2.85;;;;;;;;;;5048656;28;20025;-86
2022/04/06 23:35:06;;;;;;;3.95;2.50;;;;;;;;;;5045019;28;20075;-86
2022/04/06 23:37:39;;;;;;;4.97;2.50;;;;;;;;;;5024150;28;20057;-85
2022/04/06 23:40:48;;;;;;;5.90;2.65;;;10.30;99.90;;;;;;5026879;28;20038;-86
2022/04/06 23:51:18;;;;;;;4.93;2.58;;;10.30;99.90;;;;;;5054228;28;20049;-88
2022/04/06 23:53:52;;;;;;;7.10;2.85;;;10.30;99.90;;;;;;5055347;28;20029;-85
2022/04/06 23:56:19;;;;;;;4.53;2.60;;;;;;;;;;5059658;28;20040;-88
2022/04/06 23:58:45;;;;;;;7.15;2.97;;;;;;;;;;5066896;28;20029;-85
